sensor_id;sensor_type;location;lat;lon;timestamp;P1;durP1;ratioP1;P2;durP2;ratioP2
57575;SDS011;43412;-33.800;150.804;2022-09-09T00:03:56;3.92;;;2.45;;
57575;SDS011;43412;-33.800;150.804;2022-09-09T00:06:32;4.50;;;2.60;;
57575;SDS011;43412;-33.800;150.804;2022-09-09T00:16:56;3.45;;;2.58;;
57575;SDS011;43412;-33.800;150.804;2022-09-09T00:24:46;2.80;;;1.58;;
57575;SDS011;43412;-33.800;150.804;2022-09-09T00:30:25;7.15;;;1.83;;
57575;SDS011;43412;-33.800;150.804;2022-09-09T00:33:01;4.75;;;1.70;;
57575;SDS011;43412;-33.800;150.804;2022-09-09T00:35:38;5.28;;;1.52;;
57575;SDS011;43412;-33.800;150.804;2022-09-09T00:43:36;4.78;;;2.50;;
57575;SDS011;43412;-33.800;150.804;2022-09-09T00:49:14;5.68;;;1.80;;
57575;SDS011;43412;-33.800;150.804;2022-09-09T00:51:56;2.97;;;1.55;;
57575;SDS011;43412;-33.800;150.804;2022-09-09T00:54:38;2.22;;;2.03;;
57575;SDS011;43412;-33.800;150.804;2022-09-09T00:57:21;2.20;;;1.17;;
57575;SDS011;43412;-33.800;150.804;2022-09-09T01:05:16;1.55;;;0.90;;
57575;SDS011;43412;-33.800;150.804;2022-09-09T01:08:06;1.83;;;1.00;;
57575;SDS011;43412;-33.800;150.804;2022-09-09T01:10:56;2.95;;;1.25;;
57575;SDS011;43412;-33.800;150.804;2022-09-09T01:13:25;3.55;;;1.33;;
57575;SDS011;43412;-33.800;150.804;2022-09-09T01:15:59;1.95;;;1.20;;
57575;SDS011;43412;-33.800;150.804;2022-09-09T01:18:33;1.45;;;0.90;;
57575;SDS011;43412;-33.800;150.804;2022-09-09T01:28:53;1.33;;;0.50;;
57575;SDS011;43412;-33.800;150.804;2022-09-09T01:31:27;1.65;;;0.77;;
57575;SDS011;43412;-33.800;150.804;2022-09-09T01:34:01;0.60;;;0.50;;
57575;SDS011;43412;-33.800;150.804;2022-09-09T01:36:42;1.02;;;0.40;;
57575;SDS011;43412;-33.800;150.804;2022-09-09T01:39:26;2.35;;;1.05;;
57575;SDS011;43412;-33.800;150.804;2022-09-09T01:41:54;0.73;;;0.40;;
57575;SDS011;43412;-33.800;150.804;2022-09-09T01:44:23;0.40;;;0.30;;
57575;SDS011;43412;-33.800;150.804;2022-09-09T01:46:52;0.70;;;0.35;;
57575;SDS011;43412;-33.800;150.804;2022-09-09T01:49:20;1.08;;;0.65;;
57575;SDS011;43412;-33.800;150.804;2022-09-09T01:58:08;0.88;;;0.40;;
57575;SDS011;43412;-33.800;150.804;2022-09-09T02:00:56;1.55;;;0.20;;
57575;SDS011;43412;-33.800;150.804;2022-09-09T02:03:32;1.08;;;0.60;;
57575;SDS011;43412;-33.800;150.804;2022-09-09T02:08:47;0.40;;;0.35;;
57575;SDS011;43412;-33.800;150.804;2022-09-09T02:11:17;1.73;;;0.40;;
57575;SDS011;43412;-33.800;150.804;2022-09-09T02:13:47;0.60;;;0.30;;
57575;SDS011;43412;-33.800;150.804;2022-09-09T02:16:27;1.30;;;0.47;;
57575;SDS011;43412;-33.800;150.804;2022-09-09T02:19:11;1.13;;;0.43;;
57575;SDS011;43412;-33.800;150.804;2022-09-09T02:21:46;1.38;;;0.60;;
57575;SDS011;43412;-33.800;150.804;2022-09-09T02:24:15;1.15;;;0.60;;
57575;SDS011;43412;-33.800;150.804;2022-09-09T02:26:43;1.10;;;0.52;;
57575;SDS011;43412;-33.800;150.804;2022-09-09T02:29:23;1.48;;;0.40;;
57575;SDS011;43412;-33.800;150.804;2022-09-09T02:32:17;1.55;;;0.65;;
57575;SDS011;43412;-33.800;150.804;2022-09-09T02:34:52;0.77;;;0.32;;
57575;SDS011;43412;-33.800;150.804;2022-09-09T02:37:29;0.50;;;0.30;;
57575;SDS011;43412;-33.800;150.804;2022-09-09T02:40:03;0.93;;;0.43;;
57575;SDS011;43412;-33.800;150.804;2022-09-09T02:42:31;0.77;;;0.40;;
57575;SDS011;43412;-33.800;150.804;2022-09-09T02:45:05;0.82;;;0.28;;
57575;SDS011;43412;-33.800;150.804;2022-09-09T02:47:56;0.50;;;0.30;;
57575;SDS011;43412;-33.800;150.804;2022-09-09T02:50:56;0.70;;;0.30;;
57575;SDS011;43412;-33.800;150.804;2022-09-09T02:56:18;0.30;;;0.30;;
57575;SDS011;43412;-33.800;150.804;2022-09-09T02:58:51;1.05;;;0.30;;
57575;SDS011;43412;-33.800;150.804;2022-09-09T03:01:20;0.30;;;0.22;;
57575;SDS011;43412;-33.800;150.804;2022-09-09T03:03:48;0.30;;;0.20;;
57575;SDS011;43412;-33.800;150.804;2022-09-09T03:06:15;1.25;;;0.20;;
57575;SDS011;43412;-33.800;150.804;2022-09-09T03:08:42;0.70;;;0.55;;
57575;SDS011;43412;-33.800;150.804;2022-09-09T03:11:10;0.65;;;0.40;;
57575;SDS011;43412;-33.800;150.804;2022-09-09T03:13:39;0.60;;;0.50;;
57575;SDS011;43412;-33.800;150.804;2022-09-09T03:16:07;0.45;;;0.30;;
57575;SDS011;43412;-33.800;150.804;2022-09-09T03:18:34;0.68;;;0.30;;
57575;SDS011;43412;-33.800;150.804;2022-09-09T03:21:01;0.65;;;0.30;;
57575;SDS011;43412;-33.800;150.804;2022-09-09T03:23:29;1.25;;;0.30;;
57575;SDS011;43412;-33.800;150.804;2022-09-09T03:25:56;1.77;;;0.50;;
57575;SDS011;43412;-33.800;150.804;2022-09-09T03:28:24;1.75;;;0.73;;
57575;SDS011;43412;-33.800;150.804;2022-09-09T03:31:03;0.38;;;0.20;;
57575;SDS011;43412;-33.800;150.804;2022-09-09T03:33:31;0.77;;;0.20;;
57575;SDS011;43412;-33.800;150.804;2022-09-09T03:35:59;0.32;;;0.20;;
57575;SDS011;43412;-33.800;150.804;2022-09-09T03:38:27;0.95;;;0.40;;
57575;SDS011;43412;-33.800;150.804;2022-09-09T03:40:55;0.10;;;0.10;;
57575;SDS011;43412;-33.800;150.804;2022-09-09T03:43:24;0.50;;;0.17;;
57575;SDS011;43412;-33.800;150.804;2022-09-09T03:45:52;0.30;;;0.30;;
57575;SDS011;43412;-33.800;150.804;2022-09-09T03:48:23;0.17;;;0.17;;
57575;SDS011;43412;-33.800;150.804;2022-09-09T03:50:53;1.08;;;0.20;;
57575;SDS011;43412;-33.800;150.804;2022-09-09T03:53:23;0.20;;;0.20;;
57575;SDS011;43412;-33.800;150.804;2022-09-09T03:55:52;1.75;;;0.68;;
57575;SDS011;43412;-33.800;150.804;2022-09-09T03:58:21;0.10;;;0.10;;
57575;SDS011;43412;-33.800;150.804;2022-09-09T04:03:24;0.68;;;0.20;;
57575;SDS011;43412;-33.800;150.804;2022-09-09T04:05:52;0.60;;;0.20;;
57575;SDS011;43412;-33.800;150.804;2022-09-09T04:08:21;0.55;;;0.13;;
57575;SDS011;43412;-33.800;150.804;2022-09-09T04:10:51;0.50;;;0.17;;
57575;SDS011;43412;-33.800;150.804;2022-09-09T04:13:20;1.08;;;0.10;;
57575;SDS011;43412;-33.800;150.804;2022-09-09T04:15:52;0.45;;;0.15;;
57575;SDS011;43412;-33.800;150.804;2022-09-09T04:18:26;3.83;;;0.25;;
57575;SDS011;43412;-33.800;150.804;2022-09-09T04:20:54;0.15;;;0.10;;
57575;SDS011;43412;-33.800;150.804;2022-09-09T04:23:24;2.28;;;0.20;;
57575;SDS011;43412;-33.800;150.804;2022-09-09T04:25:55;2.05;;;0.50;;
57575;SDS011;43412;-33.800;150.804;2022-09-09T04:28:24;0.20;;;0.13;;
57575;SDS011;43412;-33.800;150.804;2022-09-09T04:30:54;0.52;;;0.52;;
57575;SDS011;43412;-33.800;150.804;2022-09-09T04:33:25;0.20;;;0.10;;
57575;SDS011;43412;-33.800;150.804;2022-09-09T04:35:52;0.20;;;0.10;;
57575;SDS011;43412;-33.800;150.804;2022-09-09T04:38:23;0.32;;;0.20;;
57575;SDS011;43412;-33.800;150.804;2022-09-09T04:40:51;0.10;;;0.10;;
57575;SDS011;43412;-33.800;150.804;2022-09-09T04:43:19;0.28;;;0.17;;
57575;SDS011;43412;-33.800;150.804;2022-09-09T04:45:48;0.38;;;0.10;;
57575;SDS011;43412;-33.800;150.804;2022-09-09T04:48:20;0.32;;;0.17;;
57575;SDS011;43412;-33.800;150.804;2022-09-09T04:53:44;0.35;;;0.10;;
57575;SDS011;43412;-33.800;150.804;2022-09-09T04:56:14;0.50;;;0.20;;
57575;SDS011;43412;-33.800;150.804;2022-09-09T04:58:43;1.30;;;0.40;;
57575;SDS011;43412;-33.800;150.804;2022-09-09T05:01:12;3.13;;;0.30;;
57575;SDS011;43412;-33.800;150.804;2022-09-09T05:03:42;2.17;;;0.50;;
57575;SDS011;43412;-33.800;150.804;2022-09-09T05:06:14;0.40;;;0.20;;
57575;SDS011;43412;-33.800;150.804;2022-09-09T05:08:44;0.22;;;0.22;;
57575;SDS011;43412;-33.800;150.804;2022-09-09T05:11:21;1.13;;;0.20;;
57575;SDS011;43412;-33.800;150.804;2022-09-09T05:13:51;2.80;;;0.60;;
57575;SDS011;43412;-33.800;150.804;2022-09-09T05:16:19;1.75;;;0.20;;
57575;SDS011;43412;-33.800;150.804;2022-09-09T05:18:48;6.75;;;0.70;;
57575;SDS011;43412;-33.800;150.804;2022-09-09T05:21:17;2.08;;;0.60;;
57575;SDS011;43412;-33.800;150.804;2022-09-09T05:23:46;0.95;;;0.25;;
57575;SDS011;43412;-33.800;150.804;2022-09-09T05:26:14;0.85;;;0.60;;
57575;SDS011;43412;-33.800;150.804;2022-09-09T05:28:43;2.83;;;0.30;;
57575;SDS011;43412;-33.800;150.804;2022-09-09T05:31:12;0.57;;;0.30;;
57575;SDS011;43412;-33.800;150.804;2022-09-09T05:33:42;1.17;;;0.25;;
57575;SDS011;43412;-33.800;150.804;2022-09-09T05:36:17;0.82;;;0.13;;
57575;SDS011;43412;-33.800;150.804;2022-09-09T05:38:46;0.10;;;0.10;;
57575;SDS011;43412;-33.800;150.804;2022-09-09T05:41:14;0.25;;;0.10;;
57575;SDS011;43412;-33.800;150.804;2022-09-09T05:43:43;1.52;;;0.20;;
57575;SDS011;43412;-33.800;150.804;2022-09-09T05:46:13;0.85;;;0.20;;
57575;SDS011;43412;-33.800;150.804;2022-09-09T05:48:48;1.33;;;0.20;;
57575;SDS011;43412;-33.800;150.804;2022-09-09T05:51:20;0.82;;;0.50;;
57575;SDS011;43412;-33.800;150.804;2022-09-09T05:53:49;1.65;;;0.80;;
57575;SDS011;43412;-33.800;150.804;2022-09-09T05:56:18;0.73;;;0.25;;
57575;SDS011;43412;-33.800;150.804;2022-09-09T05:58:56;0.20;;;0.10;;
57575;SDS011;43412;-33.800;150.804;2022-09-09T06:01:26;0.30;;;0.15;;
57575;SDS011;43412;-33.800;150.804;2022-09-09T06:03:56;0.63;;;0.25;;
57575;SDS011;43412;-33.800;150.804;2022-09-09T06:06:24;2.25;;;0.32;;
57575;SDS011;43412;-33.800;150.804;2022-09-09T06:08:54;0.40;;;0.20;;
57575;SDS011;43412;-33.800;150.804;2022-09-09T06:11:25;0.68;;;0.20;;
57575;SDS011;43412;-33.800;150.804;2022-09-09T06:13:56;1.20;;;0.30;;
57575;SDS011;43412;-33.800;150.804;2022-09-09T06:16:25;0.93;;;0.35;;
57575;SDS011;43412;-33.800;150.804;2022-09-09T06:18:54;0.25;;;0.20;;
57575;SDS011;43412;-33.800;150.804;2022-09-09T06:21:24;0.30;;;0.30;;
57575;SDS011;43412;-33.800;150.804;2022-09-09T06:23:53;0.25;;;0.25;;
57575;SDS011;43412;-33.800;150.804;2022-09-09T06:26:21;1.05;;;0.30;;
57575;SDS011;43412;-33.800;150.804;2022-09-09T06:28:51;2.00;;;0.47;;
57575;SDS011;43412;-33.800;150.804;2022-09-09T06:31:21;0.80;;;0.30;;
57575;SDS011;43412;-33.800;150.804;2022-09-09T06:33:50;0.28;;;0.28;;
57575;SDS011;43412;-33.800;150.804;2022-09-09T06:36:21;0.47;;;0.35;;
57575;SDS011;43412;-33.800;150.804;2022-09-09T06:38:51;0.93;;;0.30;;
57575;SDS011;43412;-33.800;150.804;2022-09-09T06:41:19;0.25;;;0.25;;
57575;SDS011;43412;-33.800;150.804;2022-09-09T06:43:48;0.65;;;0.43;;
57575;SDS011;43412;-33.800;150.804;2022-09-09T06:46:17;0.30;;;0.25;;
57575;SDS011;43412;-33.800;150.804;2022-09-09T06:48:45;0.43;;;0.40;;
57575;SDS011;43412;-33.800;150.804;2022-09-09T06:51:17;1.20;;;0.30;;
57575;SDS011;43412;-33.800;150.804;2022-09-09T06:53:50;1.25;;;0.50;;
57575;SDS011;43412;-33.800;150.804;2022-09-09T06:58:58;0.32;;;0.20;;
57575;SDS011;43412;-33.800;150.804;2022-09-09T07:01:30;0.30;;;0.20;;
57575;SDS011;43412;-33.800;150.804;2022-09-09T07:03:59;0.30;;;0.30;;
57575;SDS011;43412;-33.800;150.804;2022-09-09T07:06:31;0.10;;;0.10;;
57575;SDS011;43412;-33.800;150.804;2022-09-09T07:09:07;0.32;;;0.20;;
57575;SDS011;43412;-33.800;150.804;2022-09-09T07:11:40;0.30;;;0.10;;
57575;SDS011;43412;-33.800;150.804;2022-09-09T07:14:12;0.15;;;0.10;;
57575;SDS011;43412;-33.800;150.804;2022-09-09T07:16:41;0.45;;;0.17;;
57575;SDS011;43412;-33.800;150.804;2022-09-09T07:19:09;0.95;;;0.40;;
57575;SDS011;43412;-33.800;150.804;2022-09-09T07:21:38;0.85;;;0.30;;
57575;SDS011;43412;-33.800;150.804;2022-09-09T07:24:08;1.30;;;0.38;;
57575;SDS011;43412;-33.800;150.804;2022-09-09T07:26:36;0.75;;;0.50;;
57575;SDS011;43412;-33.800;150.804;2022-09-09T07:29:05;1.08;;;0.38;;
57575;SDS011;43412;-33.800;150.804;2022-09-09T07:31:34;0.90;;;0.60;;
57575;SDS011;43412;-33.800;150.804;2022-09-09T07:34:03;1.15;;;0.50;;
57575;SDS011;43412;-33.800;150.804;2022-09-09T07:36:32;2.13;;;0.50;;
57575;SDS011;43412;-33.800;150.804;2022-09-09T07:39:05;2.40;;;1.30;;
57575;SDS011;43412;-33.800;150.804;2022-09-09T07:44:11;1.45;;;0.98;;
57575;SDS011;43412;-33.800;150.804;2022-09-09T07:46:43;1.17;;;0.63;;
57575;SDS011;43412;-33.800;150.804;2022-09-09T07:49:11;1.23;;;0.68;;
57575;SDS011;43412;-33.800;150.804;2022-09-09T07:51:39;0.90;;;0.50;;
57575;SDS011;43412;-33.800;150.804;2022-09-09T07:54:09;1.95;;;0.80;;
57575;SDS011;43412;-33.800;150.804;2022-09-09T07:56:39;1.00;;;0.77;;
57575;SDS011;43412;-33.800;150.804;2022-09-09T07:59:07;1.67;;;0.85;;
57575;SDS011;43412;-33.800;150.804;2022-09-09T08:01:37;2.22;;;1.80;;
57575;SDS011;43412;-33.800;150.804;2022-09-09T08:04:12;2.50;;;1.00;;
57575;SDS011;43412;-33.800;150.804;2022-09-09T08:06:43;2.67;;;1.30;;
57575;SDS011;43412;-33.800;150.804;2022-09-09T08:09:12;2.13;;;1.17;;
57575;SDS011;43412;-33.800;150.804;2022-09-09T08:11:41;2.85;;;1.45;;
57575;SDS011;43412;-33.800;150.804;2022-09-09T08:14:09;2.42;;;1.33;;
57575;SDS011;43412;-33.800;150.804;2022-09-09T08:16:39;6.88;;;2.03;;
57575;SDS011;43412;-33.800;150.804;2022-09-09T08:19:08;4.35;;;1.65;;
57575;SDS011;43412;-33.800;150.804;2022-09-09T08:21:37;3.75;;;1.88;;
57575;SDS011;43412;-33.800;150.804;2022-09-09T08:24:09;3.03;;;1.80;;
57575;SDS011;43412;-33.800;150.804;2022-09-09T08:26:38;3.92;;;2.17;;
57575;SDS011;43412;-33.800;150.804;2022-09-09T08:29:11;2.90;;;2.05;;
57575;SDS011;43412;-33.800;150.804;2022-09-09T08:31:40;2.35;;;1.35;;
57575;SDS011;43412;-33.800;150.804;2022-09-09T08:34:20;1.92;;;1.00;;
57575;SDS011;43412;-33.800;150.804;2022-09-09T08:36:48;1.92;;;1.00;;
57575;SDS011;43412;-33.800;150.804;2022-09-09T08:39:18;3.42;;;1.08;;
57575;SDS011;43412;-33.800;150.804;2022-09-09T08:52:20;4.38;;;1.95;;
57575;SDS011;43412;-33.800;150.804;2022-09-09T08:54:55;2.95;;;1.98;;
57575;SDS011;43412;-33.800;150.804;2022-09-09T08:57:30;1.83;;;1.15;;
57575;SDS011;43412;-33.800;150.804;2022-09-09T08:59:58;2.92;;;1.35;;
57575;SDS011;43412;-33.800;150.804;2022-09-09T09:02:42;2.92;;;1.40;;
57575;SDS011;43412;-33.800;150.804;2022-09-09T09:05:28;2.40;;;1.17;;
57575;SDS011;43412;-33.800;150.804;2022-09-09T09:08:25;1.25;;;1.10;;
57575;SDS011;43412;-33.800;150.804;2022-09-09T09:11:03;2.47;;;1.27;;
57575;SDS011;43412;-33.800;150.804;2022-09-09T09:13:39;5.22;;;1.33;;
57575;SDS011;43412;-33.800;150.804;2022-09-09T09:16:44;3.97;;;1.58;;
57575;SDS011;43412;-33.800;150.804;2022-09-09T09:19:15;2.13;;;1.17;;
57575;SDS011;43412;-33.800;150.804;2022-09-09T09:21:45;3.33;;;0.80;;
57575;SDS011;43412;-33.800;150.804;2022-09-09T09:27:13;1.55;;;0.77;;
57575;SDS011;43412;-33.800;150.804;2022-09-09T09:30:20;0.90;;;0.60;;
57575;SDS011;43412;-33.800;150.804;2022-09-09T09:35:22;6.70;;;0.98;;
57575;SDS011;43412;-33.800;150.804;2022-09-09T09:37:49;1.40;;;0.73;;
57575;SDS011;43412;-33.800;150.804;2022-09-09T09:40:18;1.30;;;0.60;;
57575;SDS011;43412;-33.800;150.804;2022-09-09T09:42:48;0.60;;;0.50;;
57575;SDS011;43412;-33.800;150.804;2022-09-09T09:48:10;1.50;;;0.95;;
57575;SDS011;43412;-33.800;150.804;2022-09-09T09:50:49;3.47;;;2.17;;
57575;SDS011;43412;-33.800;150.804;2022-09-09T09:53:29;7.78;;;2.50;;
57575;SDS011;43412;-33.800;150.804;2022-09-09T09:55:59;3.28;;;2.33;;
57575;SDS011;43412;-33.800;150.804;2022-09-09T09:58:50;4.43;;;3.60;;
57575;SDS011;43412;-33.800;150.804;2022-09-09T10:01:27;3.15;;;2.05;;
57575;SDS011;43412;-33.800;150.804;2022-09-09T10:04:12;5.53;;;2.20;;
57575;SDS011;43412;-33.800;150.804;2022-09-09T10:06:41;2.83;;;1.88;;
57575;SDS011;43412;-33.800;150.804;2022-09-09T10:09:25;3.58;;;1.98;;
57575;SDS011;43412;-33.800;150.804;2022-09-09T10:12:07;2.92;;;1.58;;
57575;SDS011;43412;-33.800;150.804;2022-09-09T10:24:07;2.83;;;1.48;;
57575;SDS011;43412;-33.800;150.804;2022-09-09T10:32:33;1.63;;;0.85;;
57575;SDS011;43412;-33.800;150.804;2022-09-09T10:56:43;3.00;;;1.75;;
57575;SDS011;43412;-33.800;150.804;2022-09-09T10:59:18;3.83;;;2.10;;
57575;SDS011;43412;-33.800;150.804;2022-09-09T11:01:54;1.38;;;0.93;;
57575;SDS011;43412;-33.800;150.804;2022-09-09T11:04:30;1.58;;;0.95;;
57575;SDS011;43412;-33.800;150.804;2022-09-09T11:07:08;1.27;;;0.75;;
57575;SDS011;43412;-33.800;150.804;2022-09-09T11:09:42;1.55;;;0.68;;
57575;SDS011;43412;-33.800;150.804;2022-09-09T11:12:19;1.67;;;1.02;;
57575;SDS011;43412;-33.800;150.804;2022-09-09T11:14:50;1.55;;;0.73;;
57575;SDS011;43412;-33.800;150.804;2022-09-09T11:17:35;1.05;;;0.63;;
57575;SDS011;43412;-33.800;150.804;2022-09-09T11:20:13;1.85;;;0.80;;
57575;SDS011;43412;-33.800;150.804;2022-09-09T11:33:57;2.80;;;0.98;;
57575;SDS011;43412;-33.800;150.804;2022-09-09T11:36:43;2.75;;;1.42;;
57575;SDS011;43412;-33.800;150.804;2022-09-09T11:39:30;1.38;;;0.70;;
57575;SDS011;43412;-33.800;150.804;2022-09-09T11:44:39;1.95;;;1.08;;
57575;SDS011;43412;-33.800;150.804;2022-09-09T11:47:30;0.90;;;0.50;;
57575;SDS011;43412;-33.800;150.804;2022-09-09T11:50:08;0.57;;;0.35;;
57575;SDS011;43412;-33.800;150.804;2022-09-09T11:52:42;0.50;;;0.30;;
57575;SDS011;43412;-33.800;150.804;2022-09-09T12:06:31;1.38;;;0.45;;
57575;SDS011;43412;-33.800;150.804;2022-09-09T12:17:45;1.00;;;0.20;;
57575;SDS011;43412;-33.800;150.804;2022-09-09T12:20:24;0.63;;;0.20;;
57575;SDS011;43412;-33.800;150.804;2022-09-09T12:28:41;0.70;;;0.40;;
57575;SDS011;43412;-33.800;150.804;2022-09-09T12:34:33;0.47;;;0.30;;
57575;SDS011;43412;-33.800;150.804;2022-09-09T12:37:50;1.80;;;0.50;;
57575;SDS011;43412;-33.800;150.804;2022-09-09T12:40:06;0.98;;;0.40;;
57575;SDS011;43412;-33.800;150.804;2022-09-09T12:42:48;1.25;;;0.70;;
57575;SDS011;43412;-33.800;150.804;2022-09-09T12:45:16;0.70;;;0.30;;
57575;SDS011;43412;-33.800;150.804;2022-09-09T12:50:23;0.98;;;0.40;;
57575;SDS011;43412;-33.800;150.804;2022-09-09T12:53:03;0.82;;;0.40;;
57575;SDS011;43412;-33.800;150.804;2022-09-09T12:55:48;3.80;;;0.93;;
57575;SDS011;43412;-33.800;150.804;2022-09-09T12:58:30;0.75;;;0.40;;
57575;SDS011;43412;-33.800;150.804;2022-09-09T13:00:58;1.40;;;0.50;;
57575;SDS011;43412;-33.800;150.804;2022-09-09T13:03:28;2.60;;;0.50;;
57575;SDS011;43412;-33.800;150.804;2022-09-09T13:06:10;3.25;;;0.43;;
57575;SDS011;43412;-33.800;150.804;2022-09-09T13:08:39;0.45;;;0.38;;
57575;SDS011;43412;-33.800;150.804;2022-09-09T13:11:10;0.60;;;0.30;;
57575;SDS011;43412;-33.800;150.804;2022-09-09T13:13:54;0.63;;;0.60;;
57575;SDS011;43412;-33.800;150.804;2022-09-09T13:16:27;1.13;;;0.30;;
57575;SDS011;43412;-33.800;150.804;2022-09-09T13:19:00;2.42;;;0.30;;
57575;SDS011;43412;-33.800;150.804;2022-09-09T13:21:36;1.50;;;0.40;;
57575;SDS011;43412;-33.800;150.804;2022-09-09T13:24:06;1.63;;;0.25;;
57575;SDS011;43412;-33.800;150.804;2022-09-09T13:27:01;1.40;;;0.47;;
57575;SDS011;43412;-33.800;150.804;2022-09-09T13:29:31;0.85;;;0.55;;
57575;SDS011;43412;-33.800;150.804;2022-09-09T13:32:06;0.68;;;0.38;;
57575;SDS011;43412;-33.800;150.804;2022-09-09T13:34:58;0.50;;;0.32;;
57575;SDS011;43412;-33.800;150.804;2022-09-09T13:37:36;0.63;;;0.50;;
57575;SDS011;43412;-33.800;150.804;2022-09-09T13:40:06;4.13;;;0.68;;
57575;SDS011;43412;-33.800;150.804;2022-09-09T13:42:45;0.85;;;0.73;;
57575;SDS011;43412;-33.800;150.804;2022-09-09T13:45:22;0.93;;;0.60;;
57575;SDS011;43412;-33.800;150.804;2022-09-09T13:47:54;0.57;;;0.43;;
57575;SDS011;43412;-33.800;150.804;2022-09-09T13:50:25;3.13;;;1.48;;
57575;SDS011;43412;-33.800;150.804;2022-09-09T13:52:55;1.30;;;0.80;;
57575;SDS011;43412;-33.800;150.804;2022-09-09T13:55:26;2.92;;;0.73;;
57575;SDS011;43412;-33.800;150.804;2022-09-09T14:00:26;1.10;;;0.60;;
57575;SDS011;43412;-33.800;150.804;2022-09-09T14:02:57;0.70;;;0.50;;
57575;SDS011;43412;-33.800;150.804;2022-09-09T14:05:28;1.98;;;0.40;;
57575;SDS011;43412;-33.800;150.804;2022-09-09T14:07:58;0.40;;;0.30;;
57575;SDS011;43412;-33.800;150.804;2022-09-09T14:10:29;1.17;;;0.50;;
57575;SDS011;43412;-33.800;150.804;2022-09-09T14:12:56;1.58;;;0.60;;
57575;SDS011;43412;-33.800;150.804;2022-09-09T14:15:24;0.70;;;0.40;;
57575;SDS011;43412;-33.800;150.804;2022-09-09T14:17:52;0.95;;;0.68;;
57575;SDS011;43412;-33.800;150.804;2022-09-09T14:20:20;1.10;;;0.50;;
57575;SDS011;43412;-33.800;150.804;2022-09-09T14:22:47;0.70;;;0.50;;
57575;SDS011;43412;-33.800;150.804;2022-09-09T14:25:15;2.28;;;0.40;;
57575;SDS011;43412;-33.800;150.804;2022-09-09T14:27:43;3.13;;;0.95;;
57575;SDS011;43412;-33.800;150.804;2022-09-09T14:30:13;0.95;;;0.32;;
57575;SDS011;43412;-33.800;150.804;2022-09-09T14:32:40;0.90;;;0.50;;
57575;SDS011;43412;-33.800;150.804;2022-09-09T14:35:08;1.05;;;0.50;;
57575;SDS011;43412;-33.800;150.804;2022-09-09T14:37:35;0.50;;;0.30;;
57575;SDS011;43412;-33.800;150.804;2022-09-09T14:40:04;1.45;;;0.60;;
57575;SDS011;43412;-33.800;150.804;2022-09-09T14:42:32;1.48;;;0.77;;
57575;SDS011;43412;-33.800;150.804;2022-09-09T14:45:00;1.02;;;0.38;;
57575;SDS011;43412;-33.800;150.804;2022-09-09T14:47:27;1.23;;;0.47;;
57575;SDS011;43412;-33.800;150.804;2022-09-09T14:49:55;1.08;;;0.50;;
57575;SDS011;43412;-33.800;150.804;2022-09-09T14:52:23;0.45;;;0.30;;
57575;SDS011;43412;-33.800;150.804;2022-09-09T14:54:51;0.80;;;0.30;;
57575;SDS011;43412;-33.800;150.804;2022-09-09T14:57:18;4.35;;;0.35;;
57575;SDS011;43412;-33.800;150.804;2022-09-09T14:59:46;0.40;;;0.20;;
57575;SDS011;43412;-33.800;150.804;2022-09-09T15:02:14;0.40;;;0.20;;
57575;SDS011;43412;-33.800;150.804;2022-09-09T15:04:42;0.85;;;0.73;;
57575;SDS011;43412;-33.800;150.804;2022-09-09T15:07:10;0.28;;;0.17;;
57575;SDS011;43412;-33.800;150.804;2022-09-09T15:09:37;0.43;;;0.20;;
57575;SDS011;43412;-33.800;150.804;2022-09-09T15:12:04;1.98;;;0.47;;
57575;SDS011;43412;-33.800;150.804;2022-09-09T15:14:32;1.55;;;0.32;;
57575;SDS011;43412;-33.800;150.804;2022-09-09T15:17:00;0.30;;;0.20;;
57575;SDS011;43412;-33.800;150.804;2022-09-09T15:19:28;0.30;;;0.10;;
57575;SDS011;43412;-33.800;150.804;2022-09-09T15:21:55;0.20;;;0.20;;
57575;SDS011;43412;-33.800;150.804;2022-09-09T15:24:22;2.70;;;0.20;;
57575;SDS011;43412;-33.800;150.804;2022-09-09T15:26:51;0.90;;;0.20;;
57575;SDS011;43412;-33.800;150.804;2022-09-09T15:29:19;0.20;;;0.17;;
57575;SDS011;43412;-33.800;150.804;2022-09-09T15:31:46;0.25;;;0.08;;
57575;SDS011;43412;-33.800;150.804;2022-09-09T15:34:14;1.05;;;0.20;;
57575;SDS011;43412;-33.800;150.804;2022-09-09T15:36:43;3.08;;;0.20;;
57575;SDS011;43412;-33.800;150.804;2022-09-09T15:39:15;0.00;;;0.00;;
57575;SDS011;43412;-33.800;150.804;2022-09-09T15:41:47;0.10;;;0.10;;
57575;SDS011;43412;-33.800;150.804;2022-09-09T15:44:15;0.22;;;0.10;;
57575;SDS011;43412;-33.800;150.804;2022-09-09T15:46:45;0.90;;;0.00;;
57575;SDS011;43412;-33.800;150.804;2022-09-09T15:49:17;0.10;;;0.00;;
57575;SDS011;43412;-33.800;150.804;2022-09-09T15:51:57;0.10;;;0.10;;
57575;SDS011;43412;-33.800;150.804;2022-09-09T15:54:31;0.10;;;0.10;;
57575;SDS011;43412;-33.800;150.804;2022-09-09T15:57:01;1.40;;;0.30;;
57575;SDS011;43412;-33.800;150.804;2022-09-09T15:59:30;0.00;;;0.00;;
57575;SDS011;43412;-33.800;150.804;2022-09-09T16:01:59;0.25;;;0.10;;
57575;SDS011;43412;-33.800;150.804;2022-09-09T16:04:27;0.00;;;0.00;;
57575;SDS011;43412;-33.800;150.804;2022-09-09T16:06:56;0.30;;;0.10;;
57575;SDS011;43412;-33.800;150.804;2022-09-09T16:09:29;1.05;;;0.20;;
57575;SDS011;43412;-33.800;150.804;2022-09-09T16:12:01;0.17;;;0.10;;
57575;SDS011;43412;-33.800;150.804;2022-09-09T16:14:33;0.10;;;0.10;;
57575;SDS011;43412;-33.800;150.804;2022-09-09T16:17:02;0.30;;;0.15;;
57575;SDS011;43412;-33.800;150.804;2022-09-09T16:19:31;1.48;;;0.30;;
57575;SDS011;43412;-33.800;150.804;2022-09-09T16:22:00;0.08;;;0.05;;
57575;SDS011;43412;-33.800;150.804;2022-09-09T16:24:28;0.70;;;0.15;;
57575;SDS011;43412;-33.800;150.804;2022-09-09T16:26:56;1.70;;;0.20;;
57575;SDS011;43412;-33.800;150.804;2022-09-09T16:29:23;0.30;;;0.20;;
57575;SDS011;43412;-33.800;150.804;2022-09-09T16:31:53;0.25;;;0.10;;
57575;SDS011;43412;-33.800;150.804;2022-09-09T16:34:20;0.20;;;0.10;;
57575;SDS011;43412;-33.800;150.804;2022-09-09T16:36:48;0.30;;;0.10;;
57575;SDS011;43412;-33.800;150.804;2022-09-09T16:39:17;0.20;;;0.10;;
57575;SDS011;43412;-33.800;150.804;2022-09-09T16:41:46;1.45;;;0.00;;
57575;SDS011;43412;-33.800;150.804;2022-09-09T16:44:15;0.10;;;0.10;;
57575;SDS011;43412;-33.800;150.804;2022-09-09T16:46:44;0.30;;;0.10;;
57575;SDS011;43412;-33.800;150.804;2022-09-09T16:49:14;0.00;;;0.00;;
57575;SDS011;43412;-33.800;150.804;2022-09-09T16:51:43;0.00;;;0.00;;
57575;SDS011;43412;-33.800;150.804;2022-09-09T16:54:15;0.10;;;0.10;;
57575;SDS011;43412;-33.800;150.804;2022-09-09T16:56:44;0.20;;;0.10;;
57575;SDS011;43412;-33.800;150.804;2022-09-09T16:59:17;0.00;;;0.00;;
57575;SDS011;43412;-33.800;150.804;2022-09-09T17:01:47;0.13;;;0.03;;
57575;SDS011;43412;-33.800;150.804;2022-09-09T17:04:20;0.15;;;0.10;;
57575;SDS011;43412;-33.800;150.804;2022-09-09T17:06:51;0.28;;;0.20;;
57575;SDS011;43412;-33.800;150.804;2022-09-09T17:09:20;0.28;;;0.13;;
57575;SDS011;43412;-33.800;150.804;2022-09-09T17:11:49;0.10;;;0.10;;
57575;SDS011;43412;-33.800;150.804;2022-09-09T17:14:17;0.25;;;0.10;;
57575;SDS011;43412;-33.800;150.804;2022-09-09T17:16:46;0.20;;;0.10;;
57575;SDS011;43412;-33.800;150.804;2022-09-09T17:19:16;0.10;;;0.10;;
57575;SDS011;43412;-33.800;150.804;2022-09-09T17:21:44;0.10;;;0.10;;
57575;SDS011;43412;-33.800;150.804;2022-09-09T17:24:12;0.03;;;0.00;;